createdAt,value
2024-03-02T00:01:45.568Z,94358.00
2024-03-02T00:03:47.416Z,94356.22
2024-03-02T00:05:55.404Z,94363.63
2024-03-02T00:07:59.042Z,94370.03
2024-03-02T00:10:01.798Z,94359.91
2024-03-02T00:12:04.279Z,94357.78
2024-03-02T00:14:06.162Z,94357.28
2024-03-02T00:16:08.361Z,94356.44
2024-03-02T00:18:13.524Z,94364.09
2024-03-02T00:20:20.163Z,94358.13
2024-03-02T00:22:22.002Z,94356.44
2024-03-02T00:24:34.369Z,94366.25
2024-03-02T00:26:36.119Z,94374.81
2024-03-02T00:28:38.806Z,94370.03
2024-03-02T00:30:46.458Z,94367.19
2024-03-02T00:32:48.449Z,94369.44
2024-03-02T00:34:50.153Z,94360.53
2024-03-02T00:36:52.423Z,94356.09
2024-03-02T00:38:56.065Z,94358.38
2024-03-02T00:41:00.432Z,94356.94
2024-03-02T00:43:03.496Z,94356.84
2024-03-02T00:45:09.208Z,94356.69
2024-03-02T00:47:10.909Z,94358.94
2024-03-02T00:49:12.503Z,94363.38
2024-03-02T00:51:14.147Z,94353.00
2024-03-02T00:53:15.798Z,94358.16
2024-03-02T00:55:17.698Z,94369.81
2024-03-02T00:57:19.481Z,94363.25
2024-03-02T00:59:21.199Z,94373.50
2024-03-02T01:01:23.827Z,94369.72
2024-03-02T01:03:25.721Z,94371.13
2024-03-02T01:05:27.578Z,94373.63
2024-03-02T01:07:29.217Z,94373.84
2024-03-02T01:09:30.917Z,94366.81
2024-03-02T01:11:33.149Z,94368.38
2024-03-02T01:13:35.233Z,94376.38
2024-03-02T01:15:37.005Z,94373.50
2024-03-02T01:17:39.051Z,94375.16
2024-03-02T01:19:43.216Z,94363.03
2024-03-02T01:21:45.088Z,94362.56
2024-03-02T01:23:46.798Z,94361.94
2024-03-02T01:25:49.057Z,94361.72
2024-03-02T01:27:50.892Z,94359.19
2024-03-02T01:29:52.749Z,94362.19
2024-03-02T01:31:54.995Z,94356.94
2024-03-02T01:33:57.339Z,94349.53
2024-03-02T01:35:59.113Z,94346.44
2024-03-02T01:38:00.785Z,94354.31
2024-03-02T01:40:02.678Z,94357.41
2024-03-02T01:42:04.520Z,94349.69
2024-03-02T01:44:06.446Z,94358.34
2024-03-02T01:46:08.341Z,94365.50
2024-03-02T01:48:10.334Z,94361.59
2024-03-02T01:50:15.386Z,94348.72
2024-03-02T01:52:17.042Z,94350.38
2024-03-02T01:54:18.770Z,94352.53
2024-03-02T01:56:20.777Z,94355.63
2024-03-02T01:58:22.440Z,94356.69
2024-03-02T02:00:26.499Z,94348.38
2024-03-02T02:02:28.568Z,94349.31
2024-03-02T02:04:30.210Z,94349.31
2024-03-02T02:06:31.946Z,94347.75
2024-03-02T02:08:33.873Z,94336.66
2024-03-02T02:10:35.589Z,94341.78
2024-03-02T02:12:37.867Z,94348.84
2024-03-02T02:14:41.240Z,94333.34
2024-03-02T02:16:42.955Z,94337.50
2024-03-02T02:18:44.879Z,94338.22
2024-03-02T02:20:46.811Z,94341.00
2024-03-02T02:22:57.566Z,94329.75
2024-03-02T02:24:59.257Z,94331.75
2024-03-02T02:27:00.937Z,94332.72
2024-03-02T02:29:02.621Z,94332.59
2024-03-02T02:31:04.659Z,94329.66
2024-03-02T02:33:06.412Z,94327.03
2024-03-02T02:35:08.377Z,94331.19
2024-03-02T02:37:10.385Z,94331.66
2024-03-02T02:39:18.201Z,94329.75
2024-03-02T02:41:19.891Z,94324.41
2024-03-02T02:43:21.779Z,94325.47
2024-03-02T02:45:23.639Z,94326.19
2024-03-02T02:47:25.382Z,94323.78
2024-03-02T02:49:27.045Z,94321.28
2024-03-02T02:51:28.802Z,94311.75
2024-03-02T02:53:30.746Z,94310.91
2024-03-02T02:55:32.950Z,94312.47
2024-03-02T02:57:40.107Z,94314.97
2024-03-02T02:59:41.777Z,94315.47
2024-03-02T03:01:43.479Z,94316.16
2024-03-02T03:03:46.141Z,94313.56
2024-03-02T03:05:47.890Z,94316.53
2024-03-02T03:07:52.573Z,94308.44
2024-03-02T03:09:54.621Z,94313.78
2024-03-02T03:11:56.363Z,94314.50
2024-03-02T03:13:58.248Z,94307.34
2024-03-02T03:16:00.092Z,94307.09
2024-03-02T03:18:01.894Z,94311.75
2024-03-02T03:20:05.503Z,94317.56
2024-03-02T03:22:07.254Z,94317.09
2024-03-02T03:24:09.437Z,94318.78
2024-03-02T03:26:11.165Z,94310.69
2024-03-02T03:28:12.835Z,94315.56
2024-03-02T03:30:15.098Z,94307.69
2024-03-02T03:32:18.091Z,94311.03
2024-03-02T03:34:19.741Z,94309.38
2024-03-02T03:36:21.447Z,94310.16
2024-03-02T03:38:23.261Z,94309.84
2024-03-02T03:40:24.923Z,94314.25
2024-03-02T03:42:26.671Z,94313.53
2024-03-02T03:44:28.371Z,94305.19
2024-03-02T03:46:30.065Z,94311.13
2024-03-02T03:48:32.176Z,94313.84
2024-03-02T03:50:33.948Z,94311.84
2024-03-02T03:52:35.714Z,94314.47
2024-03-02T03:54:39.761Z,94317.56
2024-03-02T03:56:41.382Z,94309.59
2024-03-02T03:58:43.058Z,94311.38
2024-03-02T04:00:44.971Z,94308.63
2024-03-02T04:02:46.901Z,94312.91
2024-03-02T04:04:48.765Z,94311.84
2024-03-02T04:06:50.756Z,94313.16
2024-03-02T04:08:52.853Z,94303.88
2024-03-02T04:10:54.785Z,94316.16
2024-03-02T04:12:56.641Z,94314.22
2024-03-02T04:14:58.307Z,94305.44
2024-03-02T04:16:59.996Z,94307.53
2024-03-02T04:19:01.827Z,94306.47
2024-03-02T04:21:03.575Z,94310.16
2024-03-02T04:23:05.350Z,94309.91
2024-03-02T04:25:08.731Z,94312.31
2024-03-02T04:27:10.496Z,94316.22
2024-03-02T04:29:12.275Z,94314.56
2024-03-02T04:31:13.983Z,94309.91
2024-03-02T04:33:15.957Z,94311.94
2024-03-02T04:35:17.931Z,94312.78
2024-03-02T04:37:19.609Z,94309.81
2024-03-02T04:39:21.322Z,94312.75
2024-03-02T04:41:23.041Z,94312.53
2024-03-02T04:43:24.691Z,94312.91
2024-03-02T04:45:26.405Z,94315.38
2024-03-02T04:47:28.175Z,94308.75
2024-03-02T04:49:30.025Z,94317.69
2024-03-02T04:51:31.830Z,94320.16
2024-03-02T04:53:33.574Z,94314.31
2024-03-02T04:55:35.246Z,94318.47
2024-03-02T04:57:37.326Z,94314.44
2024-03-02T04:59:38.979Z,94320.84
2024-03-02T05:01:40.706Z,94323.13
2024-03-02T05:03:42.399Z,94325.28
2024-03-02T05:05:44.391Z,94329.78
2024-03-02T05:07:46.256Z,94321.56
2024-03-02T05:09:49.662Z,94323.59
2024-03-02T05:12:10.044Z,94328.47
2024-03-02T05:14:12.041Z,94334.09
2024-03-02T05:16:13.749Z,94334.19
2024-03-02T05:18:15.731Z,94334.31
2024-03-02T05:20:18.264Z,94331.06
2024-03-02T05:22:19.918Z,94338.00
2024-03-02T05:24:21.628Z,94337.88
2024-03-02T05:26:23.536Z,94342.53
2024-03-02T05:28:25.309Z,94338.41
2024-03-02T05:30:27.647Z,94339.03
2024-03-02T05:32:29.416Z,94333.31
2024-03-02T05:34:31.987Z,94343.31
2024-03-02T05:36:33.670Z,94339.50
2024-03-02T05:38:38.678Z,94335.84
2024-03-02T05:40:40.319Z,94335.59
2024-03-02T05:42:42.868Z,94342.53
2024-03-02T05:44:44.656Z,94334.38
2024-03-02T05:46:47.125Z,94337.28
2024-03-02T05:48:49.064Z,94337.75
2024-03-02T05:50:51.058Z,94333.31
2024-03-02T05:52:52.754Z,94336.28
2024-03-02T05:54:54.612Z,94333.19
2024-03-02T05:56:56.321Z,94336.19
2024-03-02T05:59:17.722Z,94341.53
2024-03-02T06:01:19.859Z,94339.06
2024-03-02T06:03:21.991Z,94352.84
2024-03-02T06:05:23.716Z,94344.03
2024-03-02T06:07:25.379Z,94344.50
2024-03-02T06:09:27.739Z,94341.06
2024-03-02T06:11:29.841Z,94342.47
2024-03-02T06:13:31.538Z,94340.19
2024-03-02T06:15:34.197Z,94337.56
2024-03-02T06:17:38.780Z,94344.25
2024-03-02T06:19:40.590Z,94341.44
2024-03-02T06:21:42.469Z,94344.72
2024-03-02T06:23:44.153Z,94344.09
2024-03-02T06:25:45.874Z,94337.69
2024-03-02T06:27:47.626Z,94345.91
2024-03-02T06:29:49.865Z,94346.97
2024-03-02T06:31:54.852Z,94355.72
2024-03-02T06:33:56.861Z,94347.66
2024-03-02T06:35:58.593Z,94344.41
2024-03-02T06:38:00.284Z,94349.13
2024-03-02T06:40:02.188Z,94357.69
2024-03-02T06:42:04.415Z,94338.63
2024-03-02T06:44:08.114Z,94339.84
2024-03-02T06:46:10.941Z,94353.41
2024-03-02T06:48:12.650Z,94353.41
2024-03-02T06:50:14.561Z,94347.22
2024-03-02T06:52:16.198Z,94355.28
2024-03-02T06:54:17.897Z,94357.41
2024-03-02T06:56:19.647Z,94351.81
2024-03-02T06:58:21.325Z,94353.91
2024-03-02T07:00:23.047Z,94352.22
2024-03-02T07:02:25.289Z,94349.81
2024-03-02T07:04:27.094Z,94358.34
2024-03-02T07:06:28.751Z,94364.59
2024-03-02T07:08:30.569Z,94362.81
2024-03-02T07:10:32.225Z,94362.19
2024-03-02T07:12:34.573Z,94372.75
2024-03-02T07:14:55.152Z,94367.53
2024-03-02T07:16:56.824Z,94372.28
2024-03-02T07:18:58.827Z,94368.28
2024-03-02T07:21:02.573Z,94368.72
2024-03-02T07:23:04.500Z,94365.97
2024-03-02T07:25:08.751Z,94361.13
2024-03-02T07:27:11.494Z,94365.03
2024-03-02T07:29:13.700Z,94371.72
2024-03-02T07:31:15.371Z,94373.38
2024-03-02T07:33:18.153Z,94373.06
2024-03-02T07:35:19.840Z,94372.66
2024-03-02T07:37:21.844Z,94371.47
2024-03-02T07:39:23.932Z,94364.59
2024-03-02T07:41:25.732Z,94372.66
2024-03-02T07:43:27.879Z,94368.06
2024-03-02T07:45:29.715Z,94374.50
2024-03-02T07:47:31.387Z,94371.66
2024-03-02T07:49:33.383Z,94371.03
2024-03-02T07:51:35.069Z,94372.03
2024-03-02T07:53:37.723Z,94371.31
2024-03-02T07:55:39.480Z,94378.00
2024-03-02T07:57:42.071Z,94373.94
2024-03-02T07:59:44.372Z,94370.97
2024-03-02T08:01:46.203Z,94373.84
2024-03-02T08:03:49.665Z,94368.78
2024-03-02T08:05:51.409Z,94368.41
2024-03-02T08:07:54.604Z,94374.34
2024-03-02T08:09:56.693Z,94377.81
2024-03-02T08:11:59.537Z,94379.13
2024-03-02T08:14:01.232Z,94375.72
2024-03-02T08:16:04.711Z,94369.19
2024-03-02T08:18:06.847Z,94375.84
2024-03-02T08:20:09.439Z,94373.66
2024-03-02T08:22:11.799Z,94370.59
2024-03-02T08:24:13.505Z,94374.91
2024-03-02T08:26:15.228Z,94373.59
2024-03-02T08:28:17.260Z,94369.31
2024-03-02T08:30:19.546Z,94370.38
2024-03-02T08:32:21.551Z,94366.72
2024-03-02T08:34:23.269Z,94363.13
2024-03-02T08:36:25.186Z,94364.81
2024-03-02T08:38:27.399Z,94368.97
2024-03-02T08:40:30.025Z,94358.03
2024-03-02T08:42:31.706Z,94363.97
2024-03-02T08:44:34.683Z,94360.41
2024-03-02T08:46:36.638Z,94368.03
2024-03-02T08:48:38.346Z,94369.94
2024-03-02T08:50:40.103Z,94367.44
2024-03-02T08:52:41.833Z,94372.06
2024-03-02T08:54:43.565Z,94369.53
2024-03-02T08:56:45.525Z,94368.59
2024-03-02T08:58:47.521Z,94370.16
2024-03-02T09:00:49.487Z,94371.34
2024-03-02T09:02:51.315Z,94371.09
2024-03-02T09:04:53.376Z,94374.44
2024-03-02T09:06:55.145Z,94369.78
2024-03-02T09:08:57.070Z,94364.16
2024-03-02T09:10:58.824Z,94362.97
2024-03-02T09:13:01.022Z,94356.81
2024-03-02T09:15:07.659Z,94370.84
2024-03-02T09:17:12.266Z,94363.03
2024-03-02T09:19:14.010Z,94353.03
2024-03-02T09:21:16.642Z,94358.03
2024-03-02T09:23:18.302Z,94356.41
2024-03-02T09:25:19.905Z,94358.94
2024-03-02T09:27:22.039Z,94353.78
2024-03-02T09:29:23.866Z,94354.78
2024-03-02T09:31:25.602Z,94357.56
2024-03-02T09:33:27.798Z,94359.09
2024-03-02T09:35:30.139Z,94352.31
2024-03-02T09:37:31.965Z,94359.94
2024-03-02T09:39:33.897Z,94355.47
2024-03-02T09:41:36.069Z,94353.09
2024-03-02T09:43:37.827Z,94354.63
2024-03-02T09:45:39.678Z,94353.34
2024-03-02T09:47:41.354Z,94354.28
2024-03-02T09:49:43.033Z,94352.56
2024-03-02T09:51:51.281Z,94347.25
2024-03-02T09:53:58.193Z,94346.16
2024-03-02T09:56:02.076Z,94334.41
2024-03-02T09:58:04.752Z,94342.09
2024-03-02T10:00:07.251Z,94339.91
2024-03-02T10:02:08.957Z,94333.41
2024-03-02T10:04:11.292Z,94335.56
2024-03-02T10:06:26.478Z,94338.56
2024-03-02T10:08:41.579Z,94338.06
2024-03-02T10:10:44.549Z,94343.41
2024-03-02T10:12:46.322Z,94337.59
2024-03-02T10:14:50.059Z,94340.91
2024-03-02T10:16:51.734Z,94339.53
2024-03-02T10:18:53.776Z,94332.09
2024-03-02T10:21:14.662Z,94338.19
2024-03-02T10:23:18.845Z,94332.66
2024-03-02T10:25:43.247Z,94333.50
2024-03-02T10:27:53.122Z,94330.63
2024-03-02T10:29:55.110Z,94331.47
2024-03-02T10:31:57.392Z,94330.75
2024-03-02T10:33:59.445Z,94331.31
2024-03-02T10:36:02.304Z,94328.56
2024-03-02T10:38:06.825Z,94334.53
2024-03-02T10:40:09.670Z,94331.78
2024-03-02T10:42:12.724Z,94329.69
2024-03-02T10:44:15.100Z,94325.69
2024-03-02T10:46:20.893Z,94330.09
2024-03-02T10:48:23.006Z,94326.66
2024-03-02T10:50:26.034Z,94332.63
2024-03-02T10:52:27.828Z,94325.78
2024-03-02T10:54:37.837Z,94320.13
2024-03-02T10:56:42.133Z,94322.03
2024-03-02T10:58:44.041Z,94315.25
2024-03-02T11:00:47.349Z,94304.38
2024-03-02T11:02:53.012Z,94314.53
2024-03-02T11:04:56.553Z,94303.00
2024-03-02T11:07:05.645Z,94301.75
2024-03-02T11:09:11.724Z,94307.13
2024-03-02T11:11:21.677Z,94289.72
2024-03-02T11:13:33.340Z,94295.72
2024-03-02T11:15:37.116Z,94298.34
2024-03-02T11:17:42.121Z,94292.59
2024-03-02T11:19:45.348Z,94287.03
2024-03-02T11:21:47.805Z,94299.25
2024-03-02T11:23:49.824Z,94278.56
2024-03-02T11:25:51.464Z,94285.75
2024-03-02T11:27:56.195Z,94286.63
2024-03-02T11:29:57.916Z,94273.44
2024-03-02T11:32:03.062Z,94281.25
2024-03-02T11:34:30.816Z,94270.53
2024-03-02T11:36:32.670Z,94268.50
2024-03-02T11:38:35.656Z,94264.22
2024-03-02T11:40:37.699Z,94269.97
2024-03-02T11:42:39.724Z,94261.22
2024-03-02T11:44:44.874Z,94264.38
2024-03-02T11:46:53.404Z,94258.09
2024-03-02T11:48:55.628Z,94252.06
2024-03-02T11:51:01.034Z,94254.88
2024-03-02T11:53:03.709Z,94243.09
2024-03-02T11:55:07.522Z,94246.09
2024-03-02T11:57:10.065Z,94247.28
2024-03-02T11:59:12.162Z,94240.81
2024-03-02T12:01:14.825Z,94242.03
2024-03-02T12:03:16.848Z,94227.97
2024-03-02T12:05:18.651Z,94222.94
2024-03-02T12:07:25.310Z,94225.81
2024-03-02T12:09:31.166Z,94224.25
2024-03-02T12:11:32.904Z,94215.47
2024-03-02T12:13:35.451Z,94217.03
2024-03-02T12:15:39.345Z,94223.81
2024-03-02T12:17:41.487Z,94222.00
2024-03-02T12:19:43.255Z,94223.25
2024-03-02T12:21:45.332Z,94227.03
2024-03-02T12:23:47.293Z,94226.28
2024-03-02T12:25:49.262Z,94217.34
2024-03-02T12:27:55.750Z,94213.75
2024-03-02T12:29:57.630Z,94215.56
2024-03-02T12:31:59.376Z,94213.09
2024-03-02T12:34:01.472Z,94204.81
2024-03-02T12:36:03.712Z,94205.47
2024-03-02T12:38:06.078Z,94194.41
2024-03-02T12:40:10.922Z,94196.91
2024-03-02T12:42:12.817Z,94197.41
2024-03-02T12:44:14.691Z,94193.53
2024-03-02T12:46:17.063Z,94193.25
2024-03-02T12:48:18.938Z,94192.72
2024-03-02T12:50:21.673Z,94190.06
2024-03-02T12:52:23.635Z,94192.72
2024-03-02T12:54:26.882Z,94199.16
2024-03-02T12:56:28.980Z,94188.56
2024-03-02T12:58:32.427Z,94193.72
2024-03-02T13:00:36.632Z,94194.69
2024-03-02T13:04:59.585Z,94181.03
2024-03-02T13:07:03.832Z,94189.84
2024-03-02T13:09:05.853Z,94190.91
2024-03-02T13:11:08.554Z,94185.44
2024-03-02T13:13:10.503Z,94177.25
2024-03-02T13:15:16.319Z,94183.72
2024-03-02T13:17:20.729Z,94178.28
2024-03-02T13:19:22.753Z,94178.53
2024-03-02T13:21:24.551Z,94173.94
2024-03-02T13:23:26.376Z,94175.28
2024-03-02T13:25:29.557Z,94180.09
2024-03-02T13:27:35.778Z,94184.50
2024-03-02T13:29:38.478Z,94173.34
2024-03-02T13:31:41.276Z,94169.09
2024-03-02T13:33:43.075Z,94171.50
2024-03-02T13:35:44.816Z,94167.34
2024-03-02T13:37:46.485Z,94159.78
2024-03-02T13:39:48.385Z,94165.72
2024-03-02T13:41:54.170Z,94160.03
2024-03-02T13:43:55.969Z,94161.53
2024-03-02T13:45:57.848Z,94165.41
2024-03-02T13:47:59.751Z,94168.53
2024-03-02T13:50:01.483Z,94163.72
2024-03-02T13:52:11.832Z,94161.94
2024-03-02T13:54:13.736Z,94156.66
2024-03-02T13:56:15.480Z,94161.69
2024-03-02T13:58:17.402Z,94162.03
2024-03-02T14:00:20.218Z,94154.63
2024-03-02T14:02:22.129Z,94147.50
2024-03-02T14:04:24.003Z,94154.84
2024-03-02T14:06:28.381Z,94159.44
2024-03-02T14:08:30.224Z,94145.97
2024-03-02T14:10:31.900Z,94158.31
2024-03-02T14:12:33.845Z,94146.69
2024-03-02T14:14:35.611Z,94144.94
2024-03-02T14:16:37.326Z,94144.09
2024-03-02T14:18:39.207Z,94144.44
2024-03-02T14:20:42.681Z,94142.38
2024-03-02T14:22:44.904Z,94132.03
2024-03-02T14:24:46.709Z,94136.47
2024-03-02T14:26:48.563Z,94138.47
2024-03-02T14:28:51.768Z,94134.34
2024-03-02T14:30:55.121Z,94137.34
2024-03-02T14:32:56.918Z,94142.03
2024-03-02T14:34:58.626Z,94138.06
2024-03-02T14:37:00.982Z,94133.88
2024-03-02T14:39:02.767Z,94124.16
2024-03-02T14:41:05.280Z,94129.97
2024-03-02T14:43:06.960Z,94122.81
2024-03-02T14:45:08.977Z,94128.91
2024-03-02T14:47:10.831Z,94120.69
2024-03-02T14:49:13.189Z,94121.81
2024-03-02T14:51:15.638Z,94117.22
2024-03-02T14:53:17.699Z,94115.38
2024-03-02T14:55:19.650Z,94114.09
2024-03-02T14:57:21.799Z,94104.13
2024-03-02T14:59:23.894Z,94110.44
2024-03-02T15:01:26.152Z,94102.00
2024-03-02T15:03:27.954Z,94099.56
2024-03-02T15:05:29.682Z,94094.41
2024-03-02T15:07:31.376Z,94092.56
2024-03-02T15:09:35.069Z,94089.94
2024-03-02T15:11:37.078Z,94087.28
2024-03-02T15:13:39.062Z,94088.13
2024-03-02T15:15:40.946Z,94086.16
2024-03-02T15:17:43.097Z,94090.31
2024-03-02T15:19:45.838Z,94090.59
2024-03-02T15:21:47.517Z,94087.63
2024-03-02T15:23:49.243Z,94083.13
2024-03-02T15:25:51.000Z,94086.47
2024-03-02T15:27:52.818Z,94082.50
2024-03-02T15:29:56.547Z,94090.28
2024-03-02T15:31:58.963Z,94085.81
2024-03-02T15:34:04.048Z,94075.03
2024-03-02T15:36:06.497Z,94074.53
2024-03-02T15:38:17.959Z,94077.81
2024-03-02T15:40:48.415Z,94068.88
2024-03-02T15:42:50.223Z,94078.16
2024-03-02T15:44:51.936Z,94078.84
2024-03-02T15:46:54.010Z,94080.16
2024-03-02T15:48:56.516Z,94070.41
2024-03-02T15:51:00.939Z,94065.94
2024-03-02T15:53:05.718Z,94075.72
2024-03-02T15:55:08.077Z,94078.50
2024-03-02T15:57:09.879Z,94079.50
2024-03-02T15:59:11.611Z,94074.50
2024-03-02T16:01:14.368Z,94069.56
2024-03-02T16:03:16.064Z,94069.94
2024-03-02T16:05:18.425Z,94075.03
2024-03-02T16:07:20.127Z,94074.88
2024-03-02T16:09:21.962Z,94072.88
2024-03-02T16:11:23.942Z,94077.34
2024-03-02T16:13:25.711Z,94068.75
2024-03-02T16:15:29.643Z,94072.88
2024-03-02T16:17:31.491Z,94078.84
2024-03-02T16:19:33.734Z,94077.16
2024-03-02T19:15:13.250Z,94016.13
2024-03-02T19:17:15.077Z,94011.09
2024-03-02T19:19:16.995Z,94012.28
2024-03-02T19:21:18.746Z,94009.50
2024-03-02T19:23:25.730Z,94006.59
2024-03-02T19:25:33.737Z,94012.19
2024-03-02T19:27:35.509Z,94016.03
2024-03-02T19:29:37.326Z,94019.66
2024-03-02T19:31:39.230Z,94018.72
2024-03-02T19:33:41.401Z,94020.13
2024-03-02T19:35:43.490Z,94015.50
2024-03-02T19:37:45.227Z,94014.53
2024-03-02T19:39:47.198Z,94007.69
2024-03-02T19:41:49.177Z,94012.88
2024-03-02T19:43:50.993Z,94014.25
2024-03-02T19:45:52.931Z,94014.69
2024-03-02T19:47:54.753Z,94012.22
2024-03-02T19:49:56.549Z,94005.16
2024-03-02T19:51:58.400Z,94008.09
2024-03-02T19:54:00.784Z,94006.31
2024-03-02T19:56:02.762Z,93999.78
2024-03-02T19:58:05.259Z,93997.09
2024-03-02T20:00:08.057Z,93995.25
2024-03-02T20:02:15.336Z,93987.78
2024-03-02T20:04:25.287Z,93986.94
2024-03-02T20:06:27.045Z,93980.44
2024-03-02T20:08:30.416Z,93979.66
2024-03-02T20:10:32.575Z,93983.28
2024-03-02T20:12:34.744Z,93987.84
2024-03-02T20:14:37.385Z,93987.84
2024-03-02T20:16:46.638Z,93989.09
2024-03-02T20:18:48.411Z,93987.00
2024-03-02T20:20:50.174Z,93985.47
2024-03-02T20:22:51.874Z,93978.56
2024-03-02T20:24:53.634Z,93976.84
2024-03-02T20:26:56.228Z,93964.19
2024-03-02T20:28:58.384Z,93964.66
2024-03-02T20:31:01.354Z,93956.50
2024-03-02T20:33:03.200Z,93967.25
2024-03-02T20:35:05.249Z,93958.66
2024-03-02T20:37:07.443Z,93957.88
2024-03-02T20:39:09.724Z,93954.97
2024-03-02T20:41:18.671Z,93953.97
2024-03-02T20:43:20.448Z,93957.31
2024-03-02T20:45:22.250Z,93951.53
2024-03-02T20:47:24.303Z,93960.34
2024-03-02T20:49:27.403Z,93953.06
2024-03-02T20:51:32.626Z,93947.72
2024-03-02T20:53:34.646Z,93946.25
2024-03-02T20:55:37.403Z,93943.28
2024-03-02T20:57:40.829Z,93948.69
2024-03-02T20:59:42.661Z,93945.72
2024-03-02T21:01:45.700Z,93950.72
2024-03-02T21:03:48.366Z,93942.94
2024-03-02T21:05:50.520Z,93942.78
2024-03-02T21:07:52.350Z,93935.94
2024-03-02T21:09:55.321Z,93934.75
2024-03-02T21:11:57.318Z,93937.06
2024-03-02T21:14:00.126Z,93937.75
2024-03-02T21:16:01.938Z,93924.88
2024-03-02T21:18:04.190Z,93938.13
2024-03-02T21:20:10.165Z,93944.41
2024-03-02T21:22:12.003Z,93933.78
2024-03-02T21:24:14.943Z,93931.09
2024-03-02T21:26:16.679Z,93932.16
2024-03-02T21:28:18.543Z,93932.06
2024-03-02T21:30:20.769Z,93934.75
2024-03-02T21:32:22.607Z,93932.97
2024-03-02T21:34:24.477Z,93933.09
2024-03-02T21:36:26.232Z,93941.63
2024-03-02T21:38:27.909Z,93937.03
2024-03-02T21:40:33.265Z,93927.97
2024-03-02T21:42:35.194Z,93927.09
2024-03-02T21:44:37.011Z,93936.34
2024-03-02T21:46:39.647Z,93930.63
2024-03-02T21:48:41.360Z,93936.34
2024-03-02T21:50:43.173Z,93940.44
2024-03-02T21:52:46.486Z,93933.81
2024-03-02T21:54:48.733Z,93940.97
2024-03-02T21:56:52.402Z,93951.16
2024-03-02T21:58:54.465Z,93945.19
2024-03-02T22:00:56.259Z,93947.53
2024-03-02T22:02:59.543Z,93944.00
2024-03-02T22:05:01.572Z,93942.03
2024-03-02T22:07:03.993Z,93944.69
2024-03-02T22:09:07.124Z,93945.06
2024-03-02T22:11:08.938Z,93944.63
2024-03-02T22:13:10.888Z,93941.66
2024-03-02T22:15:12.700Z,93949.25
2024-03-02T22:17:14.525Z,93946.97
2024-03-02T22:19:16.305Z,93949.09
2024-03-02T22:21:18.094Z,93941.91
2024-03-02T22:23:19.882Z,93940.66
2024-03-02T22:25:21.781Z,93938.16
2024-03-02T22:27:23.594Z,93932.88
2024-03-02T22:29:25.665Z,93927.78
2024-03-02T22:31:27.759Z,93934.25
2024-03-02T22:33:29.518Z,93933.09
2024-03-02T22:35:31.571Z,93929.78
2024-03-02T22:37:33.604Z,93922.19
2024-03-02T22:39:35.342Z,93917.03
2024-03-02T22:41:37.290Z,93922.97
2024-03-02T22:43:39.325Z,93919.09
2024-03-02T22:45:41.775Z,93918.09
2024-03-02T22:47:43.610Z,93922.75
2024-03-02T22:49:45.342Z,93922.09
2024-03-02T22:51:47.492Z,93929.16
2024-03-02T22:53:49.693Z,93924.03
2024-03-02T22:55:51.426Z,93919.75
2024-03-02T22:57:53.252Z,93920.78
2024-03-02T22:59:56.208Z,93916.84
2024-03-02T23:01:58.140Z,93927.66
2024-03-02T23:04:00.079Z,93919.06
2024-03-02T23:06:01.868Z,93912.94
2024-03-02T23:08:03.692Z,93917.69
2024-03-02T23:10:06.361Z,93908.81
2024-03-02T23:12:08.439Z,93907.03
2024-03-02T23:14:10.965Z,93900.47
2024-03-02T23:16:12.772Z,93893.06
2024-03-02T23:18:14.695Z,93889.28
2024-03-02T23:20:16.507Z,93890.13
2024-03-02T23:22:18.306Z,93891.09
2024-03-02T23:24:20.505Z,93882.41
2024-03-02T23:26:23.631Z,93881.38
2024-03-02T23:28:25.380Z,93886.69
2024-03-02T23:30:27.633Z,93892.13
2024-03-02T23:32:29.606Z,93891.63
2024-03-02T23:34:31.580Z,93899.09
2024-03-02T23:36:33.594Z,93903.00
2024-03-02T23:38:35.330Z,93909.41
2024-03-02T23:40:56.932Z,93911.22
2024-03-02T23:42:58.634Z,93914.31
2024-03-02T23:45:00.500Z,93915.81
2024-03-02T23:47:02.355Z,93907.66
2024-03-02T23:49:04.352Z,93906.00
2024-03-02T23:51:06.543Z,93899.63
2024-03-02T23:53:08.193Z,93895.84
2024-03-02T23:55:10.072Z,93895.78
2024-03-02T23:57:12.104Z,93889.28
2024-03-02T23:59:13.940Z,93884.69
